Time;durP1;ratioP1;P1;durP2;ratioP2;P2;SDS_P1;SDS_P2;PMS_P1;PMS_P2;Temp;Humidity;BMP_temperature;BMP_pressure;BME280_temperature;BME280_humidity;BME280_pressure;Samples;Min_cycle;Max_cycle;Signal;HPM_P1;HPM_P2
2023/12/30 00:00:00;;;;;;;0.20;0.20;;;;;;;9.61;64.26;100999.88;5014884;28;20029;-80
2023/12/30 00:02:26;;;;;;;0.20;0.20;;;;;;;9.63;63.67;101009.56;5016813;28;20029;-79
2023/12/30 00:04:52;;;;;;;0.10;0.10;;;;;;;9.63;63.66;100996.34;5017418;28;20026;-80
2023/12/30 00:07:19;;;;;;;0.10;0.10;;;;;;;9.78;63.43;101015.53;5020577;28;20033;-80
2023/12/30 00:09:45;;;;;;;0.20;0.20;;;;;;;9.71;62.52;101014.75;5016747;28;20502;-80
2023/12/30 00:12:11;;;;;;;0.20;0.20;;;;;;;9.79;62.78;101010.22;5030701;28;20037;-80
2023/12/30 00:14:37;;;;;;;0.10;0.10;;;;;;;9.84;62.73;101012.81;5027999;28;20022;-78
2023/12/30 00:17:03;;;;;;;0.10;0.10;;;;;;;9.82;62.79;101009.28;5020355;28;20057;-79
2023/12/30 00:19:30;;;;;;;0.20;0.20;;;;;;;9.87;62.89;101012.78;5015100;28;21412;-79
2023/12/30 00:21:56;;;;;;;0.15;0.15;;;;;;;9.78;62.46;101011.13;5023537;28;20347;-79
2023/12/30 00:24:22;;;;;;;0.20;0.20;;;;;;;9.70;62.28;101013.88;5048635;28;20080;-80
2023/12/30 00:26:49;;;;;;;0.90;0.90;;;;;;;9.60;62.15;101016.66;5025034;28;20029;-80
2023/12/30 00:29:15;;;;;;;1.02;0.98;;;;;;;9.75;62.86;101010.28;5023333;28;20030;-78
2023/12/30 00:31:42;;;;;;;0.17;0.17;;;;;;;9.70;62.68;101011.22;5021443;28;20484;-80
2023/12/30 00:34:08;;;;;;;0.10;0.10;;;;;;;9.64;62.78;101011.28;5016414;28;20041;-80
2023/12/30 00:36:34;;;;;;;0.10;0.10;;;;;;;9.67;62.84;101003.34;5020463;28;20029;-80
2023/12/30 00:39:00;;;;;;;0.32;0.32;;;;;;;9.60;62.20;101014.03;5023851;28;20029;-81
2023/12/30 00:41:27;;;;;;;0.10;0.10;;;;;;;9.59;62.24;101013.13;5031555;28;20028;-81
2023/12/30 00:43:53;;;;;;;0.20;0.20;;;;;;;9.64;62.45;101019.22;5031423;28;20053;-80
2023/12/30 00:46:21;;;;;;;0.10;0.10;;;;;;;9.61;62.48;101021.94;5022247;28;20029;-79
2023/12/30 00:48:48;;;;;;;0.20;0.20;;;;;;;9.63;62.64;101021.91;5024388;28;20074;-81
2023/12/30 00:51:14;;;;;;;0.10;0.10;;;;;;;9.61;62.66;101035.16;5015058;28;20082;-81
2023/12/30 00:53:41;;;;;;;0.10;0.10;;;;;;;9.57;62.62;101028.19;5016487;28;20473;-81
2023/12/30 00:56:07;;;;;;;1.48;0.73;;;;;;;9.58;62.58;101029.91;5016201;28;20034;-81
2023/12/30 00:58:34;;;;;;;0.10;0.10;;;;;;;9.53;62.44;101039.66;5017132;28;20037;-81
2023/12/30 01:01:00;;;;;;;0.20;0.20;;;;;;;9.49;62.25;101040.59;5019648;28;20106;-79
2023/12/30 01:03:26;;;;;;;0.13;0.13;;;;;;;9.52;61.94;101048.50;5010385;28;20041;-78
2023/12/30 01:05:52;;;;;;;0.20;0.20;;;;;;;9.58;62.02;101044.91;5013156;28;20084;-79
2023/12/30 01:08:19;;;;;;;0.10;0.10;;;;;;;9.57;62.17;101041.41;5042174;28;20041;-77
2023/12/30 01:10:45;;;;;;;0.15;0.15;;;;;;;9.53;61.40;101042.31;5017735;28;20037;-79
2023/12/30 01:13:11;;;;;;;0.10;0.10;;;;;;;9.60;61.99;101033.41;5017014;28;20041;-80
2023/12/30 01:15:37;;;;;;;0.17;0.17;;;;;;;9.64;62.13;101045.69;5013598;28;20035;-81
2023/12/30 01:18:04;;;;;;;0.10;0.10;;;;;;;9.57;61.73;101041.41;5022155;28;20487;-78
2023/12/30 01:20:31;;;;;;;0.10;0.10;;;;;;;9.49;61.72;101045.91;5018203;28;20037;-79
2023/12/30 01:22:57;;;;;;;0.10;0.10;;;;;;;9.55;61.53;101037.88;5019319;28;20097;-80
2023/12/30 01:25:23;;;;;;;0.10;0.10;;;;;;;9.49;61.66;101045.91;5012375;28;20042;-81
2023/12/30 01:27:49;;;;;;;0.10;0.10;;;;;;;9.58;62.14;101051.06;5012172;28;20086;-79
2023/12/30 01:30:16;;;;;;;0.10;0.10;;;;;;;9.56;62.17;101044.94;5008915;28;20112;-80
2023/12/30 01:32:42;;;;;;;0.10;0.10;;;;;;;9.55;62.09;101056.41;5029187;28;20018;-78
2023/12/30 01:35:09;;;;;;;0.10;0.10;;;;;;;9.61;61.98;101055.44;5016901;28;20033;-77
2023/12/30 01:37:35;;;;;;;0.10;0.10;;;;;;;9.56;61.90;101058.16;5008472;28;20489;-79
2023/12/30 01:40:02;;;;;;;0.10;0.10;;;;;;;9.60;61.87;101059.88;5009745;28;20037;-81
2023/12/30 01:42:28;;;;;;;0.20;0.20;;;;;;;9.52;61.69;101059.06;5018354;28;20347;-80
2023/12/30 01:44:55;;;;;;;0.50;0.50;;;;;;;9.52;61.33;101074.94;5012275;28;20467;-79
2023/12/30 01:47:21;;;;;;;0.20;0.20;;;;;;;9.59;61.94;101075.75;5019600;28;20044;-79
2023/12/30 01:49:48;;;;;;;0.10;0.10;;;;;;;9.57;61.41;101077.53;5008377;28;20458;-81
2023/12/30 01:52:14;;;;;;;0.10;0.10;;;;;;;9.59;61.83;101073.13;5012471;28;20462;-81
2023/12/30 01:54:41;;;;;;;0.17;0.17;;;;;;;9.58;61.78;101072.22;5016134;28;20464;-80
2023/12/30 01:57:09;;;;;;;0.10;0.10;;;;;;;9.55;61.77;101077.56;5014638;28;20029;-80
2023/12/30 01:59:37;;;;;;;0.10;0.10;;;;;;;9.45;61.46;101100.59;5011257;28;20038;-81
2023/12/30 02:02:04;;;;;;;0.10;0.10;;;;;;;9.42;61.11;101091.81;5016308;28;20026;-78
2023/12/30 02:04:31;;;;;;;0.20;0.20;;;;;;;9.52;61.95;101096.09;5017055;28;20064;-78
2023/12/30 02:06:57;;;;;;;0.10;0.10;;;;;;;9.55;61.71;101088.16;5009232;28;20112;-80
2023/12/30 02:09:24;;;;;;;0.20;0.20;;;;;;;9.55;61.74;101090.78;5013603;28;20087;-80
2023/12/30 02:11:50;;;;;;;0.20;0.20;;;;;;;9.49;61.30;101104.09;5016870;28;20081;-81
2023/12/30 02:14:33;;;;;;;0.10;0.10;;;;;;;9.51;61.31;101108.47;5008731;28;20037;-81
2023/12/30 02:16:59;;;;;;;0.20;0.20;;;;;;;9.54;61.64;101096.97;5015679;28;20030;-78
2023/12/30 02:19:25;;;;;;;0.10;0.10;;;;;;;9.39;61.24;101101.56;5012543;28;20506;-78
2023/12/30 02:21:52;;;;;;;0.10;0.10;;;;;;;9.57;61.60;101096.94;5015667;28;20033;-79
2023/12/30 02:24:20;;;;;;;0.28;0.28;;;;;;;9.53;61.50;101100.50;5018331;28;20121;-79
2023/12/30 02:26:46;;;;;;;0.10;0.10;;;;;;;9.58;61.95;101103.09;5019573;28;20119;-79
2023/12/30 02:29:13;;;;;;;0.20;0.20;;;;;;;9.55;61.73;101101.38;5015816;28;20032;-80
2023/12/30 02:31:46;;;;;;;0.20;0.20;;;;;;;9.54;61.80;101118.13;5005865;28;20030;-79
2023/12/30 02:34:14;;;;;;;0.10;0.10;;;;;;;9.49;61.78;101119.97;5007888;28;20033;-80
2023/12/30 02:36:40;;;;;;;0.20;0.20;;;;;;;9.52;61.69;101117.25;5019087;28;20032;-79
2023/12/30 02:39:07;;;;;;;0.10;0.10;;;;;;;9.47;61.44;101119.97;5010676;28;20037;-80
2023/12/30 02:41:33;;;;;;;0.30;0.30;;;;;;;9.48;61.61;101124.38;5018136;28;20034;-81
2023/12/30 02:44:02;;;;;;;0.10;0.10;;;;;;;9.56;62.19;101121.66;5016969;28;20026;-79
2023/12/30 02:46:29;;;;;;;0.10;0.10;;;;;;;9.45;61.66;101119.09;5009240;28;20030;-79
2023/12/30 02:48:55;;;;;;;0.10;0.10;;;;;;;9.53;61.76;101117.28;5013889;28;20056;-79
2023/12/30 02:51:21;;;;;;;0.17;0.17;;;;;;;9.54;61.90;101112.84;5005746;28;20087;-79
2023/12/30 02:53:47;;;;;;;0.20;0.20;;;;;;;9.46;61.43;101114.69;5015912;28;20041;-79
2023/12/30 02:56:22;;;;;;;0.10;0.10;;;;;;;9.53;61.81;101121.66;5014155;28;20042;-79
2023/12/30 02:58:52;;;;;;;0.20;0.20;;;;;;;9.53;62.04;101129.59;5012464;28;20129;-78
2023/12/30 03:01:18;;;;;;;0.10;0.10;;;;;;;9.55;61.96;101130.47;5015893;28;20101;-77
2023/12/30 03:03:44;;;;;;;0.10;0.10;;;;;;;9.51;61.73;101123.47;5014144;28;20026;-78
2023/12/30 03:06:14;;;;;;;0.20;0.20;;;;;;;9.51;61.77;101120.81;5011297;28;20048;-77
2023/12/30 03:08:40;;;;;;;0.20;0.20;;;;;;;9.45;61.79;101123.53;5008008;28;20043;-80
2023/12/30 03:11:09;;;;;;;0.10;0.10;;;;;;;9.52;62.03;101125.19;5010099;28;20082;-80
2023/12/30 03:13:35;;;;;;;0.10;0.10;;;;;;;9.44;61.61;101121.78;5014573;28;20051;-80
2023/12/30 03:16:02;;;;;;;0.10;0.10;;;;;;;9.55;61.65;101125.19;5011229;28;20038;-80
2023/12/30 03:18:28;;;;;;;0.20;0.20;;;;;;;9.46;61.11;101125.25;5014276;28;20504;-79
2023/12/30 03:20:55;;;;;;;0.10;0.10;;;;;;;9.55;61.71;101131.34;5013471;28;20025;-80
2023/12/30 03:23:21;;;;;;;0.10;0.10;;;;;;;9.53;61.28;101134.88;5025088;28;20033;-79
2023/12/30 03:25:47;;;;;;;0.10;0.10;;;;;;;9.60;61.58;101136.59;5031861;28;20026;-81
2023/12/30 03:28:13;;;;;;;0.10;0.10;;;;;;;9.53;61.38;101142.81;5018471;28;20057;-81
2023/12/30 03:30:40;;;;;;;0.20;0.20;;;;;;;9.60;61.20;101138.38;5015602;28;20030;-80
2023/12/30 03:33:08;;;;;;;0.20;0.20;;;;;;;9.60;60.90;101141.88;5019674;28;20033;-81
2023/12/30 03:35:35;;;;;;;0.20;0.20;;;;;;;9.59;61.48;101140.13;5027768;28;20036;-79
2023/12/30 03:38:01;;;;;;;0.10;0.10;;;;;;;9.60;61.32;101133.94;5020168;28;20541;-80
2023/12/30 03:40:27;;;;;;;0.10;0.10;;;;;;;9.59;61.28;101137.47;5019605;28;20032;-80
2023/12/30 03:42:54;;;;;;;0.10;0.10;;;;;;;9.51;60.88;101126.13;5020568;28;20022;-79
2023/12/30 03:45:20;;;;;;;0.20;0.20;;;;;;;9.54;60.81;101129.59;5007490;28;20038;-79
2023/12/30 03:47:47;;;;;;;0.10;0.10;;;;;;;9.61;60.68;101129.50;5008811;28;20026;-80
2023/12/30 03:50:13;;;;;;;0.10;0.10;;;;;;;9.52;60.29;101139.31;5019838;28;20025;-80
2023/12/30 03:52:40;;;;;;;0.10;0.10;;;;;;;9.58;60.81;101133.06;5021460;28;20392;-80
2023/12/30 03:55:06;;;;;;;0.28;0.28;;;;;;;9.55;60.47;101138.41;5014379;28;20101;-80
2023/12/30 03:57:32;;;;;;;0.10;0.10;;;;;;;9.61;60.70;101137.44;5031643;27;20033;-80
2023/12/30 03:59:59;;;;;;;0.10;0.10;;;;;;;9.64;60.82;101130.34;5017304;28;20029;-79
2023/12/30 04:02:25;;;;;;;0.85;0.85;;;;;;;9.64;60.79;101137.44;5015444;28;20033;-78
2023/12/30 04:04:51;;;;;;;0.10;0.10;;;;;;;9.62;60.68;101132.16;5034135;28;20057;-81
2023/12/30 04:07:17;;;;;;;0.10;0.10;;;;;;;9.57;60.82;101138.38;5015243;28;20026;-80
2023/12/30 04:09:43;;;;;;;0.20;0.20;;;;;;;9.64;60.91;101140.06;5035991;28;20027;-79
2023/12/30 04:12:10;;;;;;;5.28;1.05;;;;;;;9.57;60.65;101133.97;5025182;28;20028;-80
2023/12/30 04:14:38;;;;;;;0.10;0.10;;;;;;;9.55;60.65;101139.25;5016537;28;20037;-80
2023/12/30 04:17:05;;;;;;;0.20;0.20;;;;;;;9.54;60.44;101150.78;5024219;28;20484;-79
2023/12/30 04:19:31;;;;;;;0.13;0.13;;;;;;;9.54;60.45;101144.59;5035594;28;20435;-80
2023/12/30 04:21:57;;;;;;;0.15;0.15;;;;;;;9.60;60.55;101144.50;5020395;28;20045;-80
2023/12/30 04:24:23;;;;;;;0.20;0.20;;;;;;;9.60;61.03;101144.50;5014665;28;20030;-79
2023/12/30 04:26:51;;;;;;;0.13;0.13;;;;;;;9.57;60.57;101141.03;5023034;28;20022;-78
2023/12/30 04:29:17;;;;;;;0.10;0.10;;;;;;;9.52;60.25;101151.66;5025387;28;20054;-78
2023/12/30 04:31:43;;;;;;;0.10;0.10;;;;;;;9.49;60.60;101151.69;5015230;28;20424;-77
2023/12/30 04:34:10;;;;;;;1.73;1.10;;;;;;;9.54;60.62;101157.81;5014003;28;20037;-79
2023/12/30 04:36:39;;;;;;;0.10;0.10;;;;;;;9.52;60.49;101152.53;5021740;28;20033;-80
2023/12/30 04:39:05;;;;;;;0.10;0.10;;;;;;;9.55;60.66;101156.91;5027448;28;20045;-80
2023/12/30 04:41:32;;;;;;;0.10;0.10;;;;;;;9.45;60.42;101160.56;5029916;28;20033;-79
2023/12/30 04:43:58;;;;;;;0.20;0.20;;;;;;;9.48;60.48;101156.13;5017214;28;20452;-80
2023/12/30 04:46:24;;;;;;;0.10;0.10;;;;;;;9.42;60.32;101150.00;5013953;28;20488;-80
2023/12/30 04:48:54;;;;;;;0.20;0.20;;;;;;;9.60;60.38;101155.09;5015246;28;20446;-81
2023/12/30 04:51:20;;;;;;;0.10;0.10;;;;;;;9.57;60.02;101146.31;5017893;28;20034;-77
2023/12/30 04:53:47;;;;;;;0.17;0.17;;;;;;;9.58;60.23;101158.66;5012542;28;20026;-79
2023/12/30 04:56:17;;;;;;;0.10;0.10;;;;;;;9.55;60.32;101157.78;5024574;28;20038;-78
2023/12/30 04:58:43;;;;;;;0.52;0.52;;;;;;;9.55;60.16;101164.84;5013816;28;20018;-79
2023/12/30 05:01:11;;;;;;;0.10;0.10;;;;;;;9.59;60.16;101165.72;5019093;28;20500;-80
2023/12/30 05:03:40;;;;;;;6.35;2.35;;;;;;;9.52;59.89;101165.78;5006638;28;20038;-80
2023/12/30 05:06:06;;;;;;;0.17;0.17;;;;;;;9.59;60.12;101163.06;5017394;28;20025;-80
2023/12/30 05:08:33;;;;;;;0.10;0.10;;;;;;;9.53;59.88;101170.16;5008799;28;20029;-81
2023/12/30 05:11:06;;;;;;;0.10;0.10;;;;;;;9.63;59.79;101170.94;5020588;28;20389;-80
2023/12/30 05:13:32;;;;;;;0.20;0.20;;;;;;;9.57;59.48;101181.59;5011915;28;20022;-80
2023/12/30 05:15:59;;;;;;;0.10;0.10;;;;;;;9.53;59.59;101179.84;5003729;28;20416;-79
2023/12/30 05:18:25;;;;;;;0.15;0.15;;;;;;;9.53;59.66;101190.44;5002228;28;20029;-80
2023/12/30 05:20:52;;;;;;;0.20;0.20;;;;;;;9.59;59.90;101177.16;5015075;28;20030;-79
2023/12/30 05:23:18;;;;;;;0.20;0.20;;;;;;;9.58;59.55;101177.19;5006643;28;20044;-79
2023/12/30 05:25:44;;;;;;;0.20;0.20;;;;;;;9.65;59.53;101182.38;5017656;28;20129;-79
2023/12/30 05:28:10;;;;;;;0.10;0.10;;;;;;;9.74;59.83;101188.47;5003370;28;20035;-79
2023/12/30 05:30:36;;;;;;;0.52;0.50;;;;;;;9.53;59.39;101185.16;5007560;28;20154;-79
2023/12/30 05:33:04;;;;;;;0.10;0.10;;;;;;;9.65;59.64;101192.97;5006261;28;20086;-79
2023/12/30 05:35:30;;;;;;;0.10;0.10;;;;;;;9.65;59.74;101185.03;5029090;28;20106;-79
2023/12/30 05:37:57;;;;;;;0.10;0.10;;;;;;;9.62;59.65;101190.38;5005489;28;20042;-76
2023/12/30 05:40:23;;;;;;;0.10;0.10;;;;;;;9.62;60.05;101198.31;5030923;28;20056;-76
2023/12/30 05:42:49;;;;;;;0.10;0.10;;;;;;;9.56;60.02;101195.72;5013022;28;20034;-78
2023/12/30 05:45:15;;;;;;;0.20;0.20;;;;;;;9.54;59.89;101193.09;4999572;28;20034;-78
2023/12/30 05:47:41;;;;;;;0.20;0.20;;;;;;;9.54;60.09;101198.38;5032034;28;20022;-77
2023/12/30 05:50:08;;;;;;;0.50;0.50;;;;;;;9.54;60.28;101197.50;5026199;28;20038;-79
2023/12/30 05:52:34;;;;;;;0.10;0.10;;;;;;;9.41;60.07;101203.78;5004656;28;20040;-77
2023/12/30 05:55:00;;;;;;;0.20;0.20;;;;;;;9.43;60.47;101212.59;5010153;28;20474;-78
2023/12/30 05:57:28;;;;;;;0.15;0.15;;;;;;;9.45;60.96;101210.81;5015077;28;20026;-79
2023/12/30 05:59:54;;;;;;;0.45;0.45;;;;;;;9.41;60.79;101212.63;5014810;28;20033;-79
2023/12/30 06:02:21;;;;;;;0.10;0.10;;;;;;;9.43;61.40;101213.44;5020897;28;20411;-78
2023/12/30 06:04:47;;;;;;;0.10;0.10;;;;;;;9.37;61.04;101219.69;5015437;28;20034;-78
2023/12/30 06:07:13;;;;;;;0.10;0.10;;;;;;;9.34;61.58;101219.69;5011289;28;20075;-78
2023/12/30 06:09:39;;;;;;;0.20;0.20;;;;;;;9.25;60.89;101221.56;5015485;28;20038;-78
2023/12/30 06:12:06;;;;;;;0.20;0.20;;;;;;;9.27;61.51;101219.78;5023702;28;20037;-78
2023/12/30 06:14:33;;;;;;;0.10;0.10;;;;;;;9.22;61.55;101222.44;5032728;28;20396;-78
2023/12/30 06:16:59;;;;;;;0.20;0.20;;;;;;;9.14;61.82;101219.00;5022327;28;20026;-76
2023/12/30 06:19:26;;;;;;;0.25;0.25;;;;;;;9.09;61.91;101219.03;5012589;28;20481;-79
2023/12/30 06:21:52;;;;;;;0.20;0.20;;;;;;;9.02;61.38;101228.78;5004804;28;20035;-79
2023/12/30 06:24:18;;;;;;;0.13;0.13;;;;;;;9.01;61.44;101228.78;5014997;28;20437;-79
2023/12/30 06:26:44;;;;;;;0.10;0.10;;;;;;;9.08;61.69;101225.22;5010654;28;20026;-80
2023/12/30 06:29:11;;;;;;;0.10;0.10;;;;;;;9.09;61.88;101226.09;5012885;28;20049;-79
2023/12/30 06:31:41;;;;;;;0.20;0.20;;;;;;;9.10;61.59;101238.41;5014161;28;20050;-78
2023/12/30 06:34:09;;;;;;;0.13;0.13;;;;;;;9.11;61.83;101224.31;5017243;28;20037;-77
2023/12/30 06:36:35;;;;;;;0.20;0.20;;;;;;;9.12;61.64;101226.06;5016624;28;20053;-80
2023/12/30 06:39:02;;;;;;;0.20;0.20;;;;;;;9.12;61.82;101221.69;5011344;28;20030;-78
2023/12/30 06:41:28;;;;;;;0.20;0.20;;;;;;;9.11;61.71;101224.31;5025720;28;20030;-79
2023/12/30 06:43:54;;;;;;;0.10;0.10;;;;;;;9.18;62.13;101226.03;5018576;28;20022;-80
2023/12/30 06:46:20;;;;;;;0.15;0.15;;;;;;;9.24;62.10;101228.63;5031996;28;20029;-79
2023/12/30 06:48:47;;;;;;;0.10;0.10;;;;;;;9.22;61.91;101233.03;5015923;28;20030;-79
2023/12/30 06:51:14;;;;;;;0.10;0.10;;;;;;;9.25;62.22;101227.72;5020537;28;20094;-80
2023/12/30 06:53:40;;;;;;;0.20;0.20;;;;;;;9.31;62.35;101219.75;5010245;28;20034;-77
2023/12/30 06:56:08;;;;;;;0.17;0.17;;;;;;;9.32;62.61;101221.50;5017366;28;20459;-79
2023/12/30 06:58:34;;;;;;;0.10;0.10;;;;;;;9.29;62.83;101223.28;5015691;28;20033;-79
2023/12/30 07:01:01;;;;;;;0.20;0.20;;;;;;;9.26;62.82;101208.34;5014728;28;20031;-80
2023/12/30 07:03:27;;;;;;;0.10;0.10;;;;;;;9.12;63.76;101215.50;5014964;28;20033;-79
2023/12/30 07:05:53;;;;;;;0.10;0.10;;;;;;;9.09;64.10;101212.88;5016077;28;20083;-81
2023/12/30 07:08:19;;;;;;;0.10;0.10;;;;;;;9.02;65.05;101205.00;5027365;28;20049;-80
2023/12/30 07:10:45;;;;;;;0.43;0.43;;;;;;;9.02;65.29;101215.56;5011317;28;20026;-80
2023/12/30 07:13:12;;;;;;;0.20;0.20;;;;;;;8.98;65.52;101213.81;5016441;28;20323;-79
2023/12/30 07:15:38;;;;;;;0.10;0.10;;;;;;;8.89;65.26;101214.78;5026698;28;20048;-79
2023/12/30 07:18:05;;;;;;;0.20;0.20;;;;;;;8.85;65.73;101222.75;5022044;28;20034;-79
2023/12/30 07:20:31;;;;;;;0.10;0.10;;;;;;;8.80;66.14;101228.06;5022749;28;20022;-80
2023/12/30 07:22:57;;;;;;;0.10;0.10;;;;;;;8.72;66.02;101227.22;5032159;28;20458;-81
2023/12/30 07:25:23;;;;;;;0.20;0.20;;;;;;;8.66;66.79;101236.06;5018536;28;20104;-80
2023/12/30 07:27:51;;;;;;;0.10;0.10;;;;;;;8.61;66.73;101242.25;5034175;28;20026;-81
2023/12/30 07:30:17;;;;;;;0.10;0.10;;;;;;;8.59;67.11;101244.91;5027793;28;20033;-80
2023/12/30 07:32:43;;;;;;;0.10;0.10;;;;;;;8.51;66.92;101238.78;5020941;28;20060;-80
2023/12/30 07:35:09;;;;;;;0.10;0.10;;;;;;;8.49;66.56;101252.00;5022339;28;20037;-79
2023/12/30 07:37:35;;;;;;;0.20;0.20;;;;;;;8.48;66.51;101241.44;5033205;28;20087;-81
2023/12/30 07:40:02;;;;;;;0.20;0.20;;;;;;;8.40;68.39;101246.75;5015546;28;20065;-80
2023/12/30 07:42:29;;;;;;;0.20;0.20;;;;;;;8.38;68.11;101262.56;5015700;28;20109;-80
2023/12/30 07:44:55;;;;;;;0.13;0.13;;;;;;;8.41;67.34;101259.03;5022553;28;20037;-79
2023/12/30 07:47:21;;;;;;;0.10;0.10;;;;;;;8.48;66.84;101262.56;5016299;28;20029;-78
2023/12/30 07:49:47;;;;;;;0.10;0.10;;;;;;;8.51;67.86;101266.09;5014069;28;20121;-79
2023/12/30 07:52:13;;;;;;;0.45;0.45;;;;;;;8.52;67.72;101280.16;5012489;28;20037;-78
2023/12/30 07:54:40;;;;;;;0.20;0.20;;;;;;;8.50;68.85;101290.72;5024852;28;20026;-78
2023/12/30 07:57:06;;;;;;;0.88;0.85;;;;;;;8.65;68.63;101294.16;5016727;28;20160;-79
2023/12/30 07:59:33;;;;;;;0.20;0.20;;;;;;;8.66;68.39;101286.28;5009612;28;20030;-80
2023/12/30 08:01:59;;;;;;;0.10;0.10;;;;;;;8.61;68.65;101288.06;5008753;28;20048;-79
2023/12/30 08:04:25;;;;;;;0.20;0.20;;;;;;;8.68;68.54;101281.84;5006955;28;20034;-79
2023/12/30 08:06:53;;;;;;;0.20;0.20;;;;;;;8.70;68.35;101282.72;5015587;28;20026;-79
2023/12/30 08:09:19;;;;;;;0.20;0.20;;;;;;;8.71;68.68;101276.53;5014921;28;20041;-79
2023/12/30 08:11:45;;;;;;;0.10;0.10;;;;;;;8.69;68.52;101275.66;5009683;28;20034;-79
2023/12/30 08:14:13;;;;;;;0.17;0.17;;;;;;;8.72;68.32;101283.59;5001815;28;20034;-79
2023/12/30 08:16:39;;;;;;;2.55;2.33;;;;;;;8.66;68.24;101286.28;5005240;28;20033;-79
2023/12/30 08:19:05;;;;;;;0.10;0.10;;;;;;;8.65;68.67;101289.78;5008457;28;20062;-79
2023/12/30 08:21:32;;;;;;;0.20;0.20;;;;;;;8.60;68.76;101291.56;5020982;28;20034;-79
2023/12/30 08:24:00;;;;;;;0.15;0.15;;;;;;;8.61;69.08;101298.63;5010449;28;20042;-80
2023/12/30 08:26:27;;;;;;;0.20;0.20;;;;;;;8.55;69.58;101298.66;5031887;28;20060;-79
2023/12/30 08:28:54;;;;;;;0.20;0.20;;;;;;;8.65;69.37;101295.06;5009603;28;20026;-81
2023/12/30 08:31:21;;;;;;;0.10;0.10;;;;;;;8.68;69.78;101302.97;5003522;28;20036;-81
2023/12/30 08:33:48;;;;;;;2.85;1.58;;;;;;;8.77;69.54;101298.53;5004250;28;20057;-81
2023/12/30 08:36:14;;;;;;;0.10;0.10;;;;;;;8.79;69.82;101297.63;5006705;28;20058;-80
2023/12/30 08:38:40;;;;;;;0.20;0.20;;;;;;;8.82;69.79;101291.47;5014340;28;20075;-79
2023/12/30 08:41:14;;;;;;;0.20;0.20;;;;;;;8.78;70.16;101302.94;5012497;28;20205;-80
2023/12/30 08:43:41;;;;;;;0.10;0.10;;;;;;;8.85;69.56;101304.66;5009473;28;20022;-81
2023/12/30 08:46:08;;;;;;;2.47;0.70;;;;;;;8.88;69.68;101296.72;5011447;28;20036;-82
2023/12/30 08:48:34;;;;;;;0.20;0.20;;;;;;;8.87;70.05;101289.66;5015360;28;20109;-80
2023/12/30 08:51:01;;;;;;;0.20;0.20;;;;;;;8.97;69.85;101291.38;5014018;28;20033;-79
2023/12/30 08:53:27;;;;;;;0.13;0.13;;;;;;;9.05;69.90;101293.97;5005820;28;20037;-80
2023/12/30 08:55:54;;;;;;;0.10;0.10;;;;;;;9.08;69.99;101299.22;5015310;28;20056;-81
2023/12/30 08:58:23;;;;;;;0.10;0.10;;;;;;;9.11;69.84;101298.31;5040003;28;20029;-80
2023/12/30 09:00:50;;;;;;;0.20;0.20;;;;;;;9.20;69.72;101303.56;5008397;28;20695;-80
2023/12/30 09:03:16;;;;;;;0.38;0.38;;;;;;;9.16;69.85;101312.38;5009448;28;20481;-80
2023/12/30 09:05:51;;;;;;;0.20;0.20;;;;;;;9.28;69.80;101312.31;5005509;28;20463;-80
2023/12/30 09:08:18;;;;;;;0.10;0.10;;;;;;;9.33;69.61;101310.53;5016329;28;20054;-81
2023/12/30 09:10:45;;;;;;;0.10;0.10;;;;;;;9.30;69.85;101314.97;5014574;28;21335;-81
2023/12/30 09:13:11;;;;;;;0.10;0.10;;;;;;;9.36;69.58;101313.13;5004577;28;20054;-80
2023/12/30 09:15:37;;;;;;;0.10;0.10;;;;;;;9.44;69.43;101312.22;5004054;28;20061;-78
2023/12/30 09:18:04;;;;;;;5.82;0.70;;;;;;;9.53;69.30;101317.41;5010657;28;20075;-81
2023/12/30 09:20:30;;;;;;;0.20;0.20;;;;;;;9.59;69.58;101312.06;5017574;28;20072;-81
2023/12/30 09:22:56;;;;;;;0.10;0.10;;;;;;;9.63;69.13;101321.75;5011474;28;20038;-83
2023/12/30 09:25:24;;;;;;;0.17;0.17;;;;;;;9.62;69.02;101316.47;5005597;28;20036;-79
2023/12/30 09:27:50;;;;;;;0.10;0.10;;;;;;;9.61;69.35;101325.28;5026506;28;20193;-77
2023/12/30 09:30:17;;;;;;;0.20;0.20;;;;;;;9.66;69.13;101327.00;5007566;28;20042;-81
2023/12/30 09:32:43;;;;;;;0.15;0.15;;;;;;;9.74;68.82;101331.38;5015202;28;20022;-82
2023/12/30 09:35:09;;;;;;;0.10;0.10;;;;;;;9.80;69.17;101331.31;5014628;28;20041;-83
2023/12/30 09:37:35;;;;;;;0.15;0.15;;;;;;;9.90;68.89;101332.09;5008653;28;20059;-80
2023/12/30 09:40:02;;;;;;;0.10;0.10;;;;;;;9.99;68.90;101326.72;5010138;28;20026;-80
2023/12/30 09:42:28;;;;;;;0.10;0.10;;;;;;;10.00;68.68;101321.41;5020472;28;20068;-78
2023/12/30 09:44:55;;;;;;;0.47;0.47;;;;;;;10.09;68.80;101316.91;5007598;28;20377;-79
2023/12/30 09:47:22;;;;;;;0.10;0.10;;;;;;;10.10;68.62;101323.97;5008124;28;20041;-80
2023/12/30 09:49:49;;;;;;;0.10;0.10;;;;;;;10.07;68.65;101338.13;5012077;28;20030;-79
2023/12/30 09:52:15;;;;;;;0.20;0.20;;;;;;;10.17;68.30;101336.25;5006269;28;20072;-80
2023/12/30 09:54:41;;;;;;;0.20;0.20;;;;;;;10.14;68.23;101347.75;5010302;28;20040;-79
2023/12/30 09:57:08;;;;;;;0.13;0.13;;;;;;;10.24;67.96;101347.66;5010229;28;20143;-80
2023/12/30 09:59:36;;;;;;;5.88;1.50;;;;;;;10.22;68.24;101350.31;5007386;28;20034;-79
2023/12/30 10:02:06;;;;;;;0.10;0.10;;;;;;;10.33;68.06;101356.38;5013268;28;20086;-79
2023/12/30 10:04:33;;;;;;;9.23;1.48;;;;;;;10.38;67.85;101358.13;5007368;28;20121;-79
2023/12/30 10:06:59;;;;;;;0.13;0.13;;;;;;;10.46;67.64;101350.97;5010667;28;20503;-79
2023/12/30 10:09:25;;;;;;;0.20;0.20;;;;;;;10.52;67.73;101357.06;5011325;28;20037;-78
2023/12/30 10:11:52;;;;;;;0.10;0.10;;;;;;;10.61;67.71;101353.44;5023561;28;20492;-80
2023/12/30 10:14:18;;;;;;;0.10;0.10;;;;;;;10.62;67.56;101356.97;5008112;28;20033;-79
2023/12/30 10:16:44;;;;;;;0.10;0.10;;;;;;;10.62;67.11;101355.19;5016487;28;20025;-79
2023/12/30 10:19:13;;;;;;;1.17;1.13;;;;;;;10.70;67.25;101340.97;5013324;28;20026;-79
2023/12/30 10:21:40;;;;;;;0.20;0.20;;;;;;;10.68;67.31;101348.97;5019924;28;20037;-79
2023/12/30 10:24:07;;;;;;;0.10;0.10;;;;;;;10.71;66.87;101351.56;5012880;28;20479;-78
2023/12/30 10:26:37;;;;;;;0.10;0.10;;;;;;;10.86;67.36;101347.84;5007675;28;20022;-78
2023/12/30 10:29:05;;;;;;;0.20;0.20;;;;;;;10.90;67.25;101341.59;5010231;28;20039;-79
2023/12/30 10:31:31;;;;;;;0.10;0.10;;;;;;;10.93;66.89;101324.75;5014745;28;20025;-79
2023/12/30 10:33:58;;;;;;;0.13;0.13;;;;;;;11.03;67.48;101328.16;5012024;28;20072;-78
2023/12/30 10:36:28;;;;;;;0.10;0.10;;;;;;;11.03;66.83;101320.22;5015189;28;20022;-78
2023/12/30 10:38:55;;;;;;;2.85;1.75;;;;;;;11.04;67.31;101314.00;5014456;28;20117;-78
2023/12/30 10:41:21;;;;;;;0.63;0.63;;;;;;;11.03;67.03;101317.56;5019508;28;20029;-79
2023/12/30 10:43:48;;;;;;;0.10;0.10;;;;;;;11.08;67.23;101306.00;5015461;28;20025;-78
2023/12/30 10:46:17;;;;;;;10.23;1.23;;;;;;;11.08;67.02;101315.72;5015100;28;20042;-77
2023/12/30 10:48:55;;;;;;;0.10;0.10;;;;;;;11.23;66.97;101310.19;5021423;28;20026;-78
2023/12/30 10:51:28;;;;;;;0.10;0.10;;;;;;;11.27;66.83;101311.88;5020828;28;20026;-78
2023/12/30 10:54:19;;;;;;;0.52;0.52;;;;;;;11.26;67.32;101307.47;5026385;28;20101;-79
2023/12/30 10:56:54;;;;;;;0.20;0.20;;;;;;;11.20;67.39;101307.56;5010903;28;20022;-79
2023/12/30 10:59:21;;;;;;;0.98;0.98;;;;;;;11.33;68.08;101306.50;5015239;28;20054;-80
2023/12/30 11:01:48;;;;;;;0.10;0.10;;;;;;;11.29;67.80;101304.78;5009703;28;20030;-79
2023/12/30 11:04:15;;;;;;;0.20;0.20;;;;;;;11.36;67.71;101300.25;5012696;28;20038;-79
2023/12/30 11:06:53;;;;;;;1.08;1.00;;;;;;;11.45;67.66;101296.56;5018422;28;20025;-77
2023/12/30 11:09:23;;;;;;;0.10;0.10;;;;;;;11.48;67.45;101296.53;5010332;28;20038;-78
2023/12/30 11:11:51;;;;;;;0.30;0.30;;;;;;;11.52;67.40;101284.97;5024564;28;20022;-79
2023/12/30 11:14:19;;;;;;;0.10;0.10;;;;;;;11.49;67.63;101280.59;5007571;28;20037;-78
2023/12/30 11:16:52;;;;;;;0.10;0.10;;;;;;;11.51;67.70;101285.00;5024132;28;20022;-79
2023/12/30 11:19:28;;;;;;;0.20;0.20;;;;;;;11.53;67.35;101280.56;5014836;28;20049;-78
2023/12/30 11:21:58;;;;;;;0.10;0.10;;;;;;;11.57;67.48;101280.44;5024481;28;20033;-78
2023/12/30 11:24:26;;;;;;;1.45;0.82;;;;;;;11.57;67.81;101269.84;5024167;28;20029;-79
2023/12/30 11:26:54;;;;;;;0.10;0.10;;;;;;;11.71;68.09;101284.66;5017699;28;20056;-77
2023/12/30 11:29:25;;;;;;;0.20;0.20;;;;;;;11.77;68.31;101281.88;5016801;28;20026;-78